Terminal Aerodrome Forecast
Issued by NWS

Home | Current Version | Previous Version | Graphics & Text | Print | Product List | Glossary On
Versions: 1 2 3 4 5 6 7 8 9 10 11 12 13 14 15
000
FTUS43 KBIS 281700
TAFMOT
TAF
KMOT 281725Z 2818/2918 32007KT 1/2SM FZFG VV002
     FM282100 31020G28KT 6SM BR OVC005
     FM290100 32019G25KT 6SM BR SCT001 OVC008
     FM290600 33014KT P6SM OVC010=

USA.gov is the U.S. government's official web portal to all federal, state and local government web resources and services.